sensor_id;sensor_type;location;lat;lon;timestamp;P1;durP1;ratioP1;P2;durP2;ratioP2
11699;SDS011;5906;51.660;6.674;2024-02-26T00:02:18;7.90;;;5.27;;
11699;SDS011;5906;51.660;6.674;2024-02-26T00:04:45;5.60;;;5.10;;
11699;SDS011;5906;51.660;6.674;2024-02-26T00:07:12;7.13;;;5.20;;
11699;SDS011;5906;51.660;6.674;2024-02-26T00:09:39;5.83;;;5.33;;
11699;SDS011;5906;51.660;6.674;2024-02-26T00:12:06;5.67;;;5.10;;
11699;SDS011;5906;51.660;6.674;2024-02-26T00:14:33;5.80;;;4.93;;
11699;SDS011;5906;51.660;6.674;2024-02-26T00:17:00;5.00;;;4.57;;
11699;SDS011;5906;51.660;6.674;2024-02-26T00:19:27;5.97;;;4.27;;
11699;SDS011;5906;51.660;6.674;2024-02-26T00:21:54;5.30;;;4.90;;
11699;SDS011;5906;51.660;6.674;2024-02-26T00:24:21;5.03;;;4.63;;
11699;SDS011;5906;51.660;6.674;2024-02-26T00:26:48;9.90;;;4.80;;
11699;SDS011;5906;51.660;6.674;2024-02-26T00:29:19;7.23;;;4.57;;
11699;SDS011;5906;51.660;6.674;2024-02-26T00:31:46;4.97;;;4.57;;
11699;SDS011;5906;51.660;6.674;2024-02-26T00:34:13;4.33;;;4.03;;
11699;SDS011;5906;51.660;6.674;2024-02-26T00:36:40;5.50;;;3.73;;
11699;SDS011;5906;51.660;6.674;2024-02-26T00:39:07;4.50;;;4.13;;
11699;SDS011;5906;51.660;6.674;2024-02-26T00:41:37;4.50;;;4.17;;
11699;SDS011;5906;51.660;6.674;2024-02-26T00:44:05;6.07;;;4.43;;
11699;SDS011;5906;51.660;6.674;2024-02-26T00:46:32;4.97;;;4.57;;
11699;SDS011;5906;51.660;6.674;2024-02-26T00:48:59;4.30;;;3.90;;
11699;SDS011;5906;51.660;6.674;2024-02-26T00:51:27;4.40;;;4.00;;
11699;SDS011;5906;51.660;6.674;2024-02-26T00:53:54;4.40;;;4.10;;
11699;SDS011;5906;51.660;6.674;2024-02-26T00:56:21;4.50;;;4.13;;
11699;SDS011;5906;51.660;6.674;2024-02-26T00:58:49;5.20;;;3.63;;
11699;SDS011;5906;51.660;6.674;2024-02-26T01:01:17;5.00;;;4.70;;
11699;SDS011;5906;51.660;6.674;2024-02-26T01:03:44;4.53;;;4.23;;
11699;SDS011;5906;51.660;6.674;2024-02-26T01:06:11;4.40;;;3.87;;
11699;SDS011;5906;51.660;6.674;2024-02-26T01:08:38;4.57;;;4.27;;
11699;SDS011;5906;51.660;6.674;2024-02-26T01:11:05;5.00;;;4.60;;
11699;SDS011;5906;51.660;6.674;2024-02-26T01:13:32;4.67;;;4.27;;
11699;SDS011;5906;51.660;6.674;2024-02-26T01:15:59;5.03;;;4.63;;
11699;SDS011;5906;51.660;6.674;2024-02-26T01:18:27;5.57;;;5.17;;
11699;SDS011;5906;51.660;6.674;2024-02-26T01:20:54;5.80;;;4.73;;
11699;SDS011;5906;51.660;6.674;2024-02-26T01:23:21;4.57;;;4.20;;
11699;SDS011;5906;51.660;6.674;2024-02-26T01:25:48;4.90;;;4.50;;
11699;SDS011;5906;51.660;6.674;2024-02-26T01:28:15;4.77;;;4.30;;
11699;SDS011;5906;51.660;6.674;2024-02-26T01:30:42;4.57;;;4.00;;
11699;SDS011;5906;51.660;6.674;2024-02-26T01:33:09;4.80;;;4.43;;
11699;SDS011;5906;51.660;6.674;2024-02-26T01:35:36;4.80;;;4.30;;
11699;SDS011;5906;51.660;6.674;2024-02-26T01:38:03;4.53;;;4.23;;
11699;SDS011;5906;51.660;6.674;2024-02-26T01:40:30;5.50;;;4.00;;
11699;SDS011;5906;51.660;6.674;2024-02-26T01:42:57;4.90;;;4.50;;
11699;SDS011;5906;51.660;6.674;2024-02-26T01:45:25;4.60;;;4.30;;
11699;SDS011;5906;51.660;6.674;2024-02-26T01:47:52;4.70;;;4.40;;
11699;SDS011;5906;51.660;6.674;2024-02-26T01:50:20;7.00;;;4.50;;
11699;SDS011;5906;51.660;6.674;2024-02-26T01:52:49;4.90;;;4.50;;
11699;SDS011;5906;51.660;6.674;2024-02-26T01:55:17;4.17;;;3.80;;
11699;SDS011;5906;51.660;6.674;2024-02-26T01:57:46;4.17;;;3.87;;
11699;SDS011;5906;51.660;6.674;2024-02-26T02:00:15;5.53;;;4.63;;
11699;SDS011;5906;51.660;6.674;2024-02-26T02:02:44;5.00;;;4.47;;
11699;SDS011;5906;51.660;6.674;2024-02-26T02:05:14;4.33;;;4.00;;
11699;SDS011;5906;51.660;6.674;2024-02-26T02:07:43;5.07;;;4.53;;
11699;SDS011;5906;51.660;6.674;2024-02-26T02:10:10;5.13;;;4.60;;
11699;SDS011;5906;51.660;6.674;2024-02-26T02:12:37;4.73;;;4.33;;
11699;SDS011;5906;51.660;6.674;2024-02-26T02:15:06;8.63;;;4.40;;
11699;SDS011;5906;51.660;6.674;2024-02-26T02:17:34;4.77;;;4.37;;
11699;SDS011;5906;51.660;6.674;2024-02-26T02:20:02;5.20;;;4.80;;
11699;SDS011;5906;51.660;6.674;2024-02-26T02:22:30;4.53;;;4.13;;
11699;SDS011;5906;51.660;6.674;2024-02-26T02:24:58;4.90;;;4.60;;
11699;SDS011;5906;51.660;6.674;2024-02-26T02:27:25;5.67;;;4.93;;
11699;SDS011;5906;51.660;6.674;2024-02-26T02:29:53;4.47;;;4.13;;
11699;SDS011;5906;51.660;6.674;2024-02-26T02:32:20;4.60;;;4.30;;
11699;SDS011;5906;51.660;6.674;2024-02-26T02:34:48;4.77;;;4.37;;
11699;SDS011;5906;51.660;6.674;2024-02-26T02:37:15;4.40;;;4.00;;
11699;SDS011;5906;51.660;6.674;2024-02-26T02:39:43;5.83;;;4.10;;
11699;SDS011;5906;51.660;6.674;2024-02-26T02:42:11;5.33;;;3.80;;
11699;SDS011;5906;51.660;6.674;2024-02-26T02:44:38;4.23;;;3.93;;
11699;SDS011;5906;51.660;6.674;2024-02-26T02:47:08;4.60;;;4.20;;
11699;SDS011;5906;51.660;6.674;2024-02-26T02:49:35;4.33;;;4.00;;
11699;SDS011;5906;51.660;6.674;2024-02-26T02:52:02;4.47;;;4.17;;
11699;SDS011;5906;51.660;6.674;2024-02-26T02:54:32;4.43;;;4.13;;
11699;SDS011;5906;51.660;6.674;2024-02-26T02:56:59;4.90;;;4.60;;
11699;SDS011;5906;51.660;6.674;2024-02-26T02:59:26;4.60;;;4.17;;
11699;SDS011;5906;51.660;6.674;2024-02-26T03:01:53;4.83;;;4.43;;
11699;SDS011;5906;51.660;6.674;2024-02-26T03:04:20;4.57;;;3.60;;
11699;SDS011;5906;51.660;6.674;2024-02-26T03:06:50;4.97;;;3.60;;
11699;SDS011;5906;51.660;6.674;2024-02-26T03:09:17;4.77;;;4.47;;
11699;SDS011;5906;51.660;6.674;2024-02-26T03:11:43;4.07;;;3.77;;
11699;SDS011;5906;51.660;6.674;2024-02-26T03:14:10;4.40;;;4.10;;
11699;SDS011;5906;51.660;6.674;2024-02-26T03:16:40;4.50;;;4.13;;
11699;SDS011;5906;51.660;6.674;2024-02-26T03:19:07;4.57;;;4.27;;
11699;SDS011;5906;51.660;6.674;2024-02-26T03:21:35;4.20;;;3.90;;
11699;SDS011;5906;51.660;6.674;2024-02-26T03:24:02;4.07;;;3.67;;
11699;SDS011;5906;51.660;6.674;2024-02-26T03:26:32;5.00;;;3.77;;
11699;SDS011;5906;51.660;6.674;2024-02-26T03:29:04;4.63;;;4.33;;
11699;SDS011;5906;51.660;6.674;2024-02-26T03:31:32;4.40;;;4.10;;
11699;SDS011;5906;51.660;6.674;2024-02-26T03:34:01;4.20;;;3.90;;
11699;SDS011;5906;51.660;6.674;2024-02-26T03:36:28;4.70;;;4.30;;
11699;SDS011;5906;51.660;6.674;2024-02-26T03:38:55;4.53;;;4.13;;
11699;SDS011;5906;51.660;6.674;2024-02-26T03:41:22;4.13;;;3.83;;
11699;SDS011;5906;51.660;6.674;2024-02-26T03:43:49;4.27;;;3.93;;
11699;SDS011;5906;51.660;6.674;2024-02-26T03:46:16;5.60;;;3.87;;
11699;SDS011;5906;51.660;6.674;2024-02-26T03:48:43;4.40;;;4.00;;
11699;SDS011;5906;51.660;6.674;2024-02-26T03:51:10;3.60;;;3.40;;
11699;SDS011;5906;51.660;6.674;2024-02-26T03:53:37;4.40;;;4.10;;
11699;SDS011;5906;51.660;6.674;2024-02-26T03:56:04;4.00;;;3.53;;
11699;SDS011;5906;51.660;6.674;2024-02-26T03:58:32;4.37;;;4.07;;
11699;SDS011;5906;51.660;6.674;2024-02-26T04:01:02;4.67;;;4.27;;
11699;SDS011;5906;51.660;6.674;2024-02-26T04:03:29;4.80;;;4.17;;
11699;SDS011;5906;51.660;6.674;2024-02-26T04:05:56;4.30;;;4.00;;
11699;SDS011;5906;51.660;6.674;2024-02-26T04:08:23;3.77;;;3.53;;
11699;SDS011;5906;51.660;6.674;2024-02-26T04:10:50;3.73;;;3.53;;
11699;SDS011;5906;51.660;6.674;2024-02-26T04:13:17;4.27;;;3.97;;
11699;SDS011;5906;51.660;6.674;2024-02-26T04:15:44;4.27;;;3.97;;
11699;SDS011;5906;51.660;6.674;2024-02-26T04:18:13;3.63;;;3.43;;
11699;SDS011;5906;51.660;6.674;2024-02-26T04:20:40;4.50;;;4.20;;
11699;SDS011;5906;51.660;6.674;2024-02-26T04:23:10;3.80;;;3.50;;
11699;SDS011;5906;51.660;6.674;2024-02-26T04:25:37;3.70;;;3.50;;
11699;SDS011;5906;51.660;6.674;2024-02-26T04:28:04;5.10;;;4.70;;
11699;SDS011;5906;51.660;6.674;2024-02-26T04:30:34;4.43;;;4.03;;
11699;SDS011;5906;51.660;6.674;2024-02-26T04:33:04;3.40;;;3.20;;
11699;SDS011;5906;51.660;6.674;2024-02-26T04:35:31;4.93;;;4.37;;
11699;SDS011;5906;51.660;6.674;2024-02-26T04:37:58;4.83;;;4.53;;
11699;SDS011;5906;51.660;6.674;2024-02-26T04:40:25;4.37;;;4.07;;
11699;SDS011;5906;51.660;6.674;2024-02-26T04:42:52;3.77;;;3.57;;
11699;SDS011;5906;51.660;6.674;2024-02-26T04:45:19;4.90;;;4.50;;
11699;SDS011;5906;51.660;6.674;2024-02-26T04:47:46;4.23;;;3.93;;
11699;SDS011;5906;51.660;6.674;2024-02-26T04:50:13;5.00;;;4.60;;
11699;SDS011;5906;51.660;6.674;2024-02-26T04:52:40;4.53;;;4.13;;
11699;SDS011;5906;51.660;6.674;2024-02-26T04:55:07;4.33;;;3.93;;
11699;SDS011;5906;51.660;6.674;2024-02-26T04:57:34;4.67;;;3.70;;
11699;SDS011;5906;51.660;6.674;2024-02-26T05:00:01;5.07;;;4.57;;
11699;SDS011;5906;51.660;6.674;2024-02-26T05:02:29;7.60;;;4.80;;
11699;SDS011;5906;51.660;6.674;2024-02-26T05:04:58;3.97;;;3.70;;
11699;SDS011;5906;51.660;6.674;2024-02-26T05:07:26;5.10;;;4.70;;
11699;SDS011;5906;51.660;6.674;2024-02-26T05:09:52;4.47;;;4.17;;
11699;SDS011;5906;51.660;6.674;2024-02-26T05:12:19;4.07;;;3.87;;
11699;SDS011;5906;51.660;6.674;2024-02-26T05:14:46;4.50;;;4.10;;
11699;SDS011;5906;51.660;6.674;2024-02-26T05:17:13;5.47;;;4.97;;
11699;SDS011;5906;51.660;6.674;2024-02-26T05:19:40;4.10;;;3.80;;
11699;SDS011;5906;51.660;6.674;2024-02-26T05:22:07;4.10;;;3.80;;
11699;SDS011;5906;51.660;6.674;2024-02-26T05:24:34;5.20;;;4.80;;
11699;SDS011;5906;51.660;6.674;2024-02-26T05:27:04;5.23;;;4.50;;
11699;SDS011;5906;51.660;6.674;2024-02-26T05:29:31;5.47;;;5.17;;
11699;SDS011;5906;51.660;6.674;2024-02-26T05:31:58;4.80;;;4.40;;
11699;SDS011;5906;51.660;6.674;2024-02-26T05:34:31;4.63;;;4.23;;
11699;SDS011;5906;51.660;6.674;2024-02-26T05:36:59;4.07;;;3.77;;
11699;SDS011;5906;51.660;6.674;2024-02-26T05:39:26;5.40;;;4.97;;
11699;SDS011;5906;51.660;6.674;2024-02-26T05:41:53;5.07;;;4.57;;
11699;SDS011;5906;51.660;6.674;2024-02-26T05:44:20;4.57;;;4.27;;
11699;SDS011;5906;51.660;6.674;2024-02-26T05:46:57;5.10;;;4.70;;
11699;SDS011;5906;51.660;6.674;2024-02-26T05:49:33;3.97;;;3.77;;
11699;SDS011;5906;51.660;6.674;2024-02-26T05:52:00;4.67;;;4.27;;
11699;SDS011;5906;51.660;6.674;2024-02-26T05:54:26;4.10;;;3.80;;
11699;SDS011;5906;51.660;6.674;2024-02-26T05:56:53;4.37;;;4.07;;
11699;SDS011;5906;51.660;6.674;2024-02-26T05:59:20;5.37;;;4.87;;
11699;SDS011;5906;51.660;6.674;2024-02-26T06:01:48;4.67;;;4.33;;
11699;SDS011;5906;51.660;6.674;2024-02-26T06:04:20;5.10;;;4.60;;
11699;SDS011;5906;51.660;6.674;2024-02-26T06:06:47;4.53;;;4.17;;
11699;SDS011;5906;51.660;6.674;2024-02-26T06:09:14;4.27;;;3.97;;
11699;SDS011;5906;51.660;6.674;2024-02-26T06:11:41;4.50;;;4.23;;
11699;SDS011;5906;51.660;6.674;2024-02-26T06:14:08;4.77;;;4.47;;
11699;SDS011;5906;51.660;6.674;2024-02-26T06:16:36;4.40;;;4.10;;
11699;SDS011;5906;51.660;6.674;2024-02-26T06:19:03;6.60;;;3.77;;
11699;SDS011;5906;51.660;6.674;2024-02-26T06:21:30;4.77;;;4.40;;
11699;SDS011;5906;51.660;6.674;2024-02-26T06:23:57;4.80;;;4.33;;
11699;SDS011;5906;51.660;6.674;2024-02-26T06:26:25;5.13;;;3.83;;
11699;SDS011;5906;51.660;6.674;2024-02-26T06:28:55;4.07;;;3.77;;
11699;SDS011;5906;51.660;6.674;2024-02-26T06:31:22;4.73;;;4.43;;
11699;SDS011;5906;51.660;6.674;2024-02-26T06:33:49;4.50;;;4.20;;
11699;SDS011;5906;51.660;6.674;2024-02-26T06:36:16;3.93;;;3.73;;
11699;SDS011;5906;51.660;6.674;2024-02-26T06:38:44;4.30;;;4.07;;
11699;SDS011;5906;51.660;6.674;2024-02-26T06:41:11;4.97;;;4.57;;
11699;SDS011;5906;51.660;6.674;2024-02-26T06:43:37;5.00;;;4.40;;
11699;SDS011;5906;51.660;6.674;2024-02-26T06:46:05;4.30;;;4.00;;
11699;SDS011;5906;51.660;6.674;2024-02-26T06:48:33;4.63;;;4.27;;
11699;SDS011;5906;51.660;6.674;2024-02-26T06:51:00;4.17;;;3.90;;
11699;SDS011;5906;51.660;6.674;2024-02-26T06:53:27;5.23;;;4.83;;
11699;SDS011;5906;51.660;6.674;2024-02-26T06:55:54;4.17;;;3.87;;
11699;SDS011;5906;51.660;6.674;2024-02-26T06:58:20;4.47;;;4.20;;
11699;SDS011;5906;51.660;6.674;2024-02-26T07:00:48;5.00;;;4.67;;
11699;SDS011;5906;51.660;6.674;2024-02-26T07:03:15;6.00;;;4.83;;
11699;SDS011;5906;51.660;6.674;2024-02-26T07:05:42;4.40;;;4.10;;
11699;SDS011;5906;51.660;6.674;2024-02-26T07:08:11;5.70;;;5.30;;
11699;SDS011;5906;51.660;6.674;2024-02-26T07:10:38;10.17;;;4.83;;
11699;SDS011;5906;51.660;6.674;2024-02-26T07:13:05;5.03;;;4.73;;
11699;SDS011;5906;51.660;6.674;2024-02-26T07:15:33;5.33;;;4.87;;
11699;SDS011;5906;51.660;6.674;2024-02-26T07:18:00;6.03;;;5.47;;
11699;SDS011;5906;51.660;6.674;2024-02-26T07:20:30;5.10;;;4.70;;
11699;SDS011;5906;51.660;6.674;2024-02-26T07:22:57;4.57;;;4.27;;
11699;SDS011;5906;51.660;6.674;2024-02-26T07:25:24;5.03;;;4.60;;
11699;SDS011;5906;51.660;6.674;2024-02-26T07:27:51;5.10;;;4.80;;
11699;SDS011;5906;51.660;6.674;2024-02-26T07:30:18;5.20;;;4.70;;
11699;SDS011;5906;51.660;6.674;2024-02-26T07:32:45;4.50;;;3.97;;
11699;SDS011;5906;51.660;6.674;2024-02-26T07:35:17;4.80;;;4.40;;
11699;SDS011;5906;51.660;6.674;2024-02-26T07:37:47;5.00;;;4.70;;
11699;SDS011;5906;51.660;6.674;2024-02-26T07:40:15;5.60;;;5.13;;
11699;SDS011;5906;51.660;6.674;2024-02-26T07:42:42;4.80;;;4.40;;
11699;SDS011;5906;51.660;6.674;2024-02-26T07:45:09;9.40;;;4.43;;
11699;SDS011;5906;51.660;6.674;2024-02-26T07:47:37;4.87;;;4.47;;
11699;SDS011;5906;51.660;6.674;2024-02-26T07:50:07;5.10;;;4.70;;
11699;SDS011;5906;51.660;6.674;2024-02-26T07:52:35;7.60;;;4.17;;
11699;SDS011;5906;51.660;6.674;2024-02-26T07:55:02;5.43;;;5.00;;
11699;SDS011;5906;51.660;6.674;2024-02-26T07:57:33;5.53;;;4.97;;
11699;SDS011;5906;51.660;6.674;2024-02-26T08:00:00;5.67;;;5.27;;
11699;SDS011;5906;51.660;6.674;2024-02-26T08:02:27;5.50;;;5.00;;
11699;SDS011;5906;51.660;6.674;2024-02-26T08:04:54;5.20;;;4.77;;
11699;SDS011;5906;51.660;6.674;2024-02-26T08:07:21;4.80;;;4.40;;
11699;SDS011;5906;51.660;6.674;2024-02-26T08:09:50;4.87;;;4.57;;
11699;SDS011;5906;51.660;6.674;2024-02-26T08:12:17;4.90;;;4.60;;
11699;SDS011;5906;51.660;6.674;2024-02-26T08:14:44;4.60;;;4.40;;
11699;SDS011;5906;51.660;6.674;2024-02-26T08:17:10;5.00;;;4.50;;
11699;SDS011;5906;51.660;6.674;2024-02-26T08:19:37;5.30;;;4.80;;
11699;SDS011;5906;51.660;6.674;2024-02-26T08:22:05;4.23;;;3.93;;
11699;SDS011;5906;51.660;6.674;2024-02-26T08:24:32;4.67;;;4.33;;
11699;SDS011;5906;51.660;6.674;2024-02-26T08:26:59;4.53;;;4.17;;
11699;SDS011;5906;51.660;6.674;2024-02-26T08:29:26;5.13;;;4.13;;
11699;SDS011;5906;51.660;6.674;2024-02-26T08:31:53;6.93;;;4.53;;
11699;SDS011;5906;51.660;6.674;2024-02-26T08:34:20;5.43;;;5.03;;
11699;SDS011;5906;51.660;6.674;2024-02-26T08:36:47;5.17;;;4.77;;
11699;SDS011;5906;51.660;6.674;2024-02-26T08:39:15;5.60;;;4.43;;
11699;SDS011;5906;51.660;6.674;2024-02-26T08:41:44;4.60;;;4.30;;
11699;SDS011;5906;51.660;6.674;2024-02-26T08:44:11;4.73;;;4.33;;
11699;SDS011;5906;51.660;6.674;2024-02-26T08:46:38;4.53;;;4.20;;
11699;SDS011;5906;51.660;6.674;2024-02-26T08:49:05;5.50;;;5.00;;
11699;SDS011;5906;51.660;6.674;2024-02-26T08:51:32;4.97;;;4.57;;
11699;SDS011;5906;51.660;6.674;2024-02-26T08:53:59;4.90;;;4.40;;
11699;SDS011;5906;51.660;6.674;2024-02-26T08:56:26;4.67;;;4.37;;
11699;SDS011;5906;51.660;6.674;2024-02-26T08:58:53;4.73;;;4.33;;
11699;SDS011;5906;51.660;6.674;2024-02-26T09:01:23;4.53;;;4.20;;
11699;SDS011;5906;51.660;6.674;2024-02-26T09:03:50;4.90;;;4.37;;
11699;SDS011;5906;51.660;6.674;2024-02-26T09:06:17;5.20;;;4.10;;
11699;SDS011;5906;51.660;6.674;2024-02-26T09:08:44;4.97;;;4.47;;
11699;SDS011;5906;51.660;6.674;2024-02-26T09:11:11;14.13;;;9.93;;
11699;SDS011;5906;51.660;6.674;2024-02-26T09:13:38;15.30;;;8.00;;
11699;SDS011;5906;51.660;6.674;2024-02-26T09:16:05;23.80;;;11.77;;
11699;SDS011;5906;51.660;6.674;2024-02-26T09:18:32;14.70;;;9.00;;
11699;SDS011;5906;51.660;6.674;2024-02-26T09:20:59;34.40;;;15.20;;
11699;SDS011;5906;51.660;6.674;2024-02-26T09:23:32;16.57;;;8.83;;
11699;SDS011;5906;51.660;6.674;2024-02-26T09:26:01;21.53;;;11.57;;
11699;SDS011;5906;51.660;6.674;2024-02-26T09:28:28;8.33;;;6.30;;
11699;SDS011;5906;51.660;6.674;2024-02-26T09:30:58;8.40;;;6.97;;
11699;SDS011;5906;51.660;6.674;2024-02-26T09:33:25;9.50;;;6.77;;
11699;SDS011;5906;51.660;6.674;2024-02-26T09:35:52;5.50;;;5.00;;
11699;SDS011;5906;51.660;6.674;2024-02-26T09:38:19;6.57;;;5.97;;
11699;SDS011;5906;51.660;6.674;2024-02-26T09:40:46;8.37;;;5.87;;
11699;SDS011;5906;51.660;6.674;2024-02-26T09:43:14;5.83;;;5.13;;
11699;SDS011;5906;51.660;6.674;2024-02-26T09:45:43;6.20;;;5.70;;
11699;SDS011;5906;51.660;6.674;2024-02-26T09:48:10;5.60;;;5.20;;
11699;SDS011;5906;51.660;6.674;2024-02-26T09:50:40;8.50;;;6.30;;
11699;SDS011;5906;51.660;6.674;2024-02-26T09:53:12;8.83;;;6.10;;
11699;SDS011;5906;51.660;6.674;2024-02-26T09:55:41;6.43;;;5.83;;
11699;SDS011;5906;51.660;6.674;2024-02-26T09:58:08;6.10;;;5.60;;
11699;SDS011;5906;51.660;6.674;2024-02-26T10:00:37;8.90;;;6.03;;
11699;SDS011;5906;51.660;6.674;2024-02-26T10:03:06;6.93;;;6.23;;
11699;SDS011;5906;51.660;6.674;2024-02-26T10:05:39;6.80;;;6.20;;
11699;SDS011;5906;51.660;6.674;2024-02-26T10:08:10;7.90;;;6.73;;
11699;SDS011;5906;51.660;6.674;2024-02-26T10:10:40;8.33;;;7.60;;
11699;SDS011;5906;51.660;6.674;2024-02-26T10:13:07;6.50;;;5.93;;
11699;SDS011;5906;51.660;6.674;2024-02-26T10:15:36;8.40;;;7.60;;
11699;SDS011;5906;51.660;6.674;2024-02-26T10:18:04;8.03;;;6.53;;
11699;SDS011;5906;51.660;6.674;2024-02-26T10:20:32;8.70;;;7.03;;
11699;SDS011;5906;51.660;6.674;2024-02-26T10:23:03;8.63;;;7.17;;
11699;SDS011;5906;51.660;6.674;2024-02-26T10:25:31;8.97;;;8.00;;
11699;SDS011;5906;51.660;6.674;2024-02-26T10:28:01;9.47;;;7.77;;
11699;SDS011;5906;51.660;6.674;2024-02-26T10:30:29;8.30;;;7.50;;
11699;SDS011;5906;51.660;6.674;2024-02-26T10:32:56;9.30;;;8.40;;
11699;SDS011;5906;51.660;6.674;2024-02-26T10:35:26;11.37;;;8.03;;
11699;SDS011;5906;51.660;6.674;2024-02-26T10:37:55;10.07;;;8.47;;
11699;SDS011;5906;51.660;6.674;2024-02-26T10:40:22;9.00;;;7.60;;
11699;SDS011;5906;51.660;6.674;2024-02-26T10:42:49;9.77;;;7.60;;
11699;SDS011;5906;51.660;6.674;2024-02-26T10:45:16;11.07;;;7.70;;
11699;SDS011;5906;51.660;6.674;2024-02-26T10:47:44;7.50;;;6.80;;
11699;SDS011;5906;51.660;6.674;2024-02-26T10:50:12;17.83;;;8.50;;
11699;SDS011;5906;51.660;6.674;2024-02-26T10:52:41;10.10;;;7.40;;
11699;SDS011;5906;51.660;6.674;2024-02-26T10:55:08;7.83;;;7.13;;
11699;SDS011;5906;51.660;6.674;2024-02-26T10:57:48;7.50;;;6.63;;
11699;SDS011;5906;51.660;6.674;2024-02-26T11:00:18;11.50;;;8.67;;
11699;SDS011;5906;51.660;6.674;2024-02-26T11:02:45;9.30;;;8.00;;
11699;SDS011;5906;51.660;6.674;2024-02-26T11:05:13;8.80;;;7.60;;
11699;SDS011;5906;51.660;6.674;2024-02-26T11:07:41;10.07;;;8.20;;
11699;SDS011;5906;51.660;6.674;2024-02-26T11:10:09;9.03;;;8.13;;
11699;SDS011;5906;51.660;6.674;2024-02-26T11:12:37;14.03;;;8.00;;
11699;SDS011;5906;51.660;6.674;2024-02-26T11:15:06;12.60;;;8.77;;
11699;SDS011;5906;51.660;6.674;2024-02-26T11:17:35;9.30;;;8.07;;
11699;SDS011;5906;51.660;6.674;2024-02-26T11:20:05;12.43;;;8.20;;
11699;SDS011;5906;51.660;6.674;2024-02-26T11:22:39;12.13;;;9.37;;
11699;SDS011;5906;51.660;6.674;2024-02-26T11:25:06;12.50;;;9.47;;
11699;SDS011;5906;51.660;6.674;2024-02-26T11:27:35;8.87;;;7.97;;
11699;SDS011;5906;51.660;6.674;2024-02-26T11:30:08;8.80;;;7.80;;
11699;SDS011;5906;51.660;6.674;2024-02-26T11:32:37;9.67;;;8.43;;
11699;SDS011;5906;51.660;6.674;2024-02-26T11:35:05;7.87;;;7.13;;
11699;SDS011;5906;51.660;6.674;2024-02-26T11:37:33;10.23;;;8.90;;
11699;SDS011;5906;51.660;6.674;2024-02-26T11:40:15;8.43;;;7.50;;
11699;SDS011;5906;51.660;6.674;2024-02-26T11:42:44;9.80;;;7.53;;
11699;SDS011;5906;51.660;6.674;2024-02-26T11:48:21;9.70;;;8.33;;
11699;SDS011;5906;51.660;6.674;2024-02-26T11:50:50;12.93;;;8.60;;
11699;SDS011;5906;51.660;6.674;2024-02-26T11:53:19;11.27;;;8.40;;
11699;SDS011;5906;51.660;6.674;2024-02-26T11:58:44;10.20;;;8.20;;
11699;SDS011;5906;51.660;6.674;2024-02-26T12:04:21;10.87;;;8.60;;
11699;SDS011;5906;51.660;6.674;2024-02-26T12:06:54;8.63;;;7.70;;
11699;SDS011;5906;51.660;6.674;2024-02-26T12:12:10;9.73;;;8.77;;
11699;SDS011;5906;51.660;6.674;2024-02-26T12:14:51;9.30;;;8.33;;
11699;SDS011;5906;51.660;6.674;2024-02-26T12:17:20;11.90;;;8.00;;
11699;SDS011;5906;51.660;6.674;2024-02-26T12:19:48;9.57;;;8.77;;
11699;SDS011;5906;51.660;6.674;2024-02-26T12:22:16;11.33;;;9.40;;
11699;SDS011;5906;51.660;6.674;2024-02-26T12:24:43;9.47;;;7.80;;
11699;SDS011;5906;51.660;6.674;2024-02-26T12:27:11;10.90;;;8.70;;
11699;SDS011;5906;51.660;6.674;2024-02-26T12:29:39;16.57;;;8.83;;
11699;SDS011;5906;51.660;6.674;2024-02-26T12:32:06;10.50;;;8.53;;
11699;SDS011;5906;51.660;6.674;2024-02-26T12:34:34;11.30;;;9.47;;
11699;SDS011;5906;51.660;6.674;2024-02-26T12:37:01;11.30;;;8.97;;
11699;SDS011;5906;51.660;6.674;2024-02-26T12:39:29;10.57;;;8.67;;
11699;SDS011;5906;51.660;6.674;2024-02-26T12:41:57;11.70;;;10.13;;
11699;SDS011;5906;51.660;6.674;2024-02-26T12:44:26;9.70;;;7.70;;
11699;SDS011;5906;51.660;6.674;2024-02-26T12:46:59;18.37;;;9.43;;
11699;SDS011;5906;51.660;6.674;2024-02-26T12:49:29;9.63;;;7.97;;
11699;SDS011;5906;51.660;6.674;2024-02-26T12:51:56;9.30;;;7.93;;
11699;SDS011;5906;51.660;6.674;2024-02-26T12:54:29;12.00;;;7.83;;
11699;SDS011;5906;51.660;6.674;2024-02-26T12:56:59;9.03;;;7.47;;
11699;SDS011;5906;51.660;6.674;2024-02-26T12:59:28;11.20;;;8.20;;
11699;SDS011;5906;51.660;6.674;2024-02-26T13:01:56;9.57;;;7.07;;
11699;SDS011;5906;51.660;6.674;2024-02-26T13:04:24;7.93;;;7.13;;
11699;SDS011;5906;51.660;6.674;2024-02-26T13:06:52;9.17;;;8.20;;
11699;SDS011;5906;51.660;6.674;2024-02-26T13:09:19;9.60;;;7.60;;
11699;SDS011;5906;51.660;6.674;2024-02-26T13:11:53;7.90;;;7.10;;
11699;SDS011;5906;51.660;6.674;2024-02-26T13:14:20;9.33;;;8.03;;
11699;SDS011;5906;51.660;6.674;2024-02-26T13:16:54;7.70;;;7.00;;
11699;SDS011;5906;51.660;6.674;2024-02-26T13:19:22;8.57;;;7.33;;
11699;SDS011;5906;51.660;6.674;2024-02-26T13:21:49;9.20;;;7.67;;
11699;SDS011;5906;51.660;6.674;2024-02-26T13:24:16;8.03;;;7.23;;
11699;SDS011;5906;51.660;6.674;2024-02-26T13:26:46;8.30;;;7.50;;
11699;SDS011;5906;51.660;6.674;2024-02-26T13:29:16;7.70;;;6.57;;
11699;SDS011;5906;51.660;6.674;2024-02-26T13:31:44;8.97;;;7.30;;
11699;SDS011;5906;51.660;6.674;2024-02-26T13:34:22;7.73;;;7.03;;
11699;SDS011;5906;51.660;6.674;2024-02-26T13:36:51;8.10;;;7.07;;
11699;SDS011;5906;51.660;6.674;2024-02-26T13:39:35;6.80;;;6.10;;
11699;SDS011;5906;51.660;6.674;2024-02-26T13:42:07;7.90;;;7.10;;
11699;SDS011;5906;51.660;6.674;2024-02-26T13:44:35;11.90;;;8.27;;
11699;SDS011;5906;51.660;6.674;2024-02-26T13:47:05;9.00;;;7.20;;
11699;SDS011;5906;51.660;6.674;2024-02-26T13:49:32;9.40;;;7.50;;
11699;SDS011;5906;51.660;6.674;2024-02-26T13:51:59;9.27;;;7.20;;
11699;SDS011;5906;51.660;6.674;2024-02-26T13:54:26;9.27;;;7.67;;
11699;SDS011;5906;51.660;6.674;2024-02-26T13:56:53;9.83;;;7.40;;
11699;SDS011;5906;51.660;6.674;2024-02-26T13:59:20;8.80;;;7.90;;
11699;SDS011;5906;51.660;6.674;2024-02-26T14:01:47;9.57;;;8.53;;
11699;SDS011;5906;51.660;6.674;2024-02-26T14:04:14;10.43;;;7.80;;
11699;SDS011;5906;51.660;6.674;2024-02-26T14:06:41;9.57;;;7.40;;
11699;SDS011;5906;51.660;6.674;2024-02-26T14:09:08;9.70;;;7.90;;
11699;SDS011;5906;51.660;6.674;2024-02-26T14:11:35;10.60;;;7.90;;
11699;SDS011;5906;51.660;6.674;2024-02-26T14:14:02;9.80;;;7.60;;
11699;SDS011;5906;51.660;6.674;2024-02-26T14:16:29;10.70;;;8.80;;
11699;SDS011;5906;51.660;6.674;2024-02-26T14:18:58;11.47;;;9.00;;
11699;SDS011;5906;51.660;6.674;2024-02-26T14:21:25;12.03;;;8.90;;
11699;SDS011;5906;51.660;6.674;2024-02-26T14:23:53;9.53;;;7.20;;
11699;SDS011;5906;51.660;6.674;2024-02-26T14:26:22;12.37;;;9.23;;
11699;SDS011;5906;51.660;6.674;2024-02-26T14:28:49;15.10;;;9.37;;
11699;SDS011;5906;51.660;6.674;2024-02-26T14:31:17;17.33;;;10.17;;
11699;SDS011;5906;51.660;6.674;2024-02-26T14:36:13;11.40;;;8.60;;
11699;SDS011;5906;51.660;6.674;2024-02-26T14:38:40;12.70;;;9.10;;
11699;SDS011;5906;51.660;6.674;2024-02-26T14:41:08;12.97;;;9.37;;
11699;SDS011;5906;51.660;6.674;2024-02-26T14:43:36;12.90;;;9.47;;
11699;SDS011;5906;51.660;6.674;2024-02-26T14:46:03;12.77;;;9.53;;
11699;SDS011;5906;51.660;6.674;2024-02-26T14:48:30;13.50;;;9.37;;
11699;SDS011;5906;51.660;6.674;2024-02-26T14:50:59;14.17;;;10.20;;
11699;SDS011;5906;51.660;6.674;2024-02-26T14:53:26;13.90;;;9.67;;
11699;SDS011;5906;51.660;6.674;2024-02-26T14:55:53;14.97;;;9.80;;
11699;SDS011;5906;51.660;6.674;2024-02-26T14:58:21;13.93;;;9.60;;
11699;SDS011;5906;51.660;6.674;2024-02-26T15:00:47;15.03;;;9.97;;
11699;SDS011;5906;51.660;6.674;2024-02-26T15:03:14;14.37;;;9.70;;
11699;SDS011;5906;51.660;6.674;2024-02-26T15:05:44;18.10;;;10.87;;
11699;SDS011;5906;51.660;6.674;2024-02-26T15:08:10;12.40;;;9.33;;
11699;SDS011;5906;51.660;6.674;2024-02-26T15:10:41;16.53;;;9.97;;
11699;SDS011;5906;51.660;6.674;2024-02-26T15:13:14;15.43;;;10.57;;
11699;SDS011;5906;51.660;6.674;2024-02-26T15:15:43;15.97;;;10.00;;
11699;SDS011;5906;51.660;6.674;2024-02-26T15:18:10;12.50;;;10.60;;